Artas, South Dakota
Current Conditions -  °F | °C
As of 10:52 PM on Sunday 21 Dec 2014 (Local Time) from KMBG Reporting Station
Moderate Fog Moderate Fog  
Wind Chill: 29°   Ceiling: 200
Heat Index: 29°   Visibility: 0.5mi
Dew Point: 28°   Wind: 3mph
Humidity: 96%   Direction: 120°ESE
Pressure: 29.41"   Gusts: NA
Location:  45.7737°N, 99.5895°W
Report Text: KMBG 220452Z AUTO 12003KT 1/2SM FZFG VV002 M02/M02 A2941 RMK AO2 SLP975 I1000 T10171022
Loading
Personal Weather Stations






























Interactive Weather Map New forecast layout! Learn more

10-Day Weather Forecast

Advertisements
Track Severe Weather on mobile